sensor_id;sensor_type;location;lat;lon;timestamp;temperature;humidity
80676;SHT30;70041;46.088;18.268;2023-05-24T00:01:14;18.82;68.85
80676;SHT30;70041;46.088;18.268;2023-05-24T00:03:41;18.91;68.49
80676;SHT30;70041;46.088;18.268;2023-05-24T00:06:06;18.96;68.34
80676;SHT30;70041;46.088;18.268;2023-05-24T00:08:32;18.85;68.52
80676;SHT30;70041;46.088;18.268;2023-05-24T00:10:58;18.78;68.94
80676;SHT30;70041;46.088;18.268;2023-05-24T00:13:24;18.72;69.08
80676;SHT30;70041;46.088;18.268;2023-05-24T00:15:50;18.61;69.57
80676;SHT30;70041;46.088;18.268;2023-05-24T00:18:15;18.55;69.77
80676;SHT30;70041;46.088;18.268;2023-05-24T00:20:44;18.60;69.87
80676;SHT30;70041;46.088;18.268;2023-05-24T00:23:10;18.60;70.11
80676;SHT30;70041;46.088;18.268;2023-05-24T00:25:35;18.55;70.45
80676;SHT30;70041;46.088;18.268;2023-05-24T00:28:01;18.55;70.77
80676;SHT30;70041;46.088;18.268;2023-05-24T00:30:26;18.55;70.84
80676;SHT30;70041;46.088;18.268;2023-05-24T00:32:52;18.54;71.42
80676;SHT30;70041;46.088;18.268;2023-05-24T00:35:17;18.54;71.26
80676;SHT30;70041;46.088;18.268;2023-05-24T00:37:43;18.55;71.17
80676;SHT30;70041;46.088;18.268;2023-05-24T00:40:10;18.53;71.43
80676;SHT30;70041;46.088;18.268;2023-05-24T00:42:36;18.53;71.52
80676;SHT30;70041;46.088;18.268;2023-05-24T00:45:02;18.47;71.59
80676;SHT30;70041;46.088;18.268;2023-05-24T00:47:27;18.41;71.88
80676;SHT30;70041;46.088;18.268;2023-05-24T00:49:53;18.43;71.83
80676;SHT30;70041;46.088;18.268;2023-05-24T00:52:19;18.36;72.11
80676;SHT30;70041;46.088;18.268;2023-05-24T00:54:45;18.34;72.54
80676;SHT30;70041;46.088;18.268;2023-05-24T00:57:10;18.23;73.00
80676;SHT30;70041;46.088;18.268;2023-05-24T00:59:39;18.26;72.85
80676;SHT30;70041;46.088;18.268;2023-05-24T01:02:04;18.24;73.19
80676;SHT30;70041;46.088;18.268;2023-05-24T01:04:30;18.20;73.41
80676;SHT30;70041;46.088;18.268;2023-05-24T01:07:17;18.13;73.44
80676;SHT30;70041;46.088;18.268;2023-05-24T01:12:42;17.89;74.32
80676;SHT30;70041;46.088;18.268;2023-05-24T01:15:17;17.90;74.49
80676;SHT30;70041;46.088;18.268;2023-05-24T01:20:18;17.87;74.57
80676;SHT30;70041;46.088;18.268;2023-05-24T01:28:07;17.93;74.33
80676;SHT30;70041;46.088;18.268;2023-05-24T01:30:33;17.85;74.79
80676;SHT30;70041;46.088;18.268;2023-05-24T01:32:59;17.85;74.66
80676;SHT30;70041;46.088;18.268;2023-05-24T01:35:24;17.85;74.72
80676;SHT30;70041;46.088;18.268;2023-05-24T01:37:49;17.78;74.81
80676;SHT30;70041;46.088;18.268;2023-05-24T01:40:15;17.78;74.89
80676;SHT30;70041;46.088;18.268;2023-05-24T01:42:50;17.75;74.94
80676;SHT30;70041;46.088;18.268;2023-05-24T01:45:30;17.69;75.36
80676;SHT30;70041;46.088;18.268;2023-05-24T01:48:18;17.62;75.55
80676;SHT30;70041;46.088;18.268;2023-05-24T01:51:04;17.65;75.56
80676;SHT30;70041;46.088;18.268;2023-05-24T01:53:39;17.70;75.36
80676;SHT30;70041;46.088;18.268;2023-05-24T01:56:06;17.68;75.58
80676;SHT30;70041;46.088;18.268;2023-05-24T01:58:33;17.68;75.45
80676;SHT30;70041;46.088;18.268;2023-05-24T02:01:00;17.76;75.18
80676;SHT30;70041;46.088;18.268;2023-05-24T02:03:26;17.78;74.92
80676;SHT30;70041;46.088;18.268;2023-05-24T02:05:52;17.80;75.11
80676;SHT30;70041;46.088;18.268;2023-05-24T02:08:17;17.83;74.67
80676;SHT30;70041;46.088;18.268;2023-05-24T02:10:42;17.85;74.69
80676;SHT30;70041;46.088;18.268;2023-05-24T02:13:08;17.87;75.33
80676;SHT30;70041;46.088;18.268;2023-05-24T02:15:33;17.85;74.56
80676;SHT30;70041;46.088;18.268;2023-05-24T02:17:59;17.87;74.66
80676;SHT30;70041;46.088;18.268;2023-05-24T02:20:26;17.82;74.97
80676;SHT30;70041;46.088;18.268;2023-05-24T02:22:55;17.73;75.48
80676;SHT30;70041;46.088;18.268;2023-05-24T02:25:21;17.72;75.69
80676;SHT30;70041;46.088;18.268;2023-05-24T02:27:47;17.75;75.93
80676;SHT30;70041;46.088;18.268;2023-05-24T02:30:12;17.76;75.65
80676;SHT30;70041;46.088;18.268;2023-05-24T02:32:38;17.78;76.11
80676;SHT30;70041;46.088;18.268;2023-05-24T02:35:04;17.73;76.11
80676;SHT30;70041;46.088;18.268;2023-05-24T02:37:29;17.80;75.96
80676;SHT30;70041;46.088;18.268;2023-05-24T02:39:55;17.75;76.27
80676;SHT30;70041;46.088;18.268;2023-05-24T02:42:20;17.85;76.28
80676;SHT30;70041;46.088;18.268;2023-05-24T02:44:46;17.82;75.74
80676;SHT30;70041;46.088;18.268;2023-05-24T02:47:17;17.87;75.81
80676;SHT30;70041;46.088;18.268;2023-05-24T02:49:42;17.89;75.93
80676;SHT30;70041;46.088;18.268;2023-05-24T02:52:08;17.87;76.19
80676;SHT30;70041;46.088;18.268;2023-05-24T02:54:33;17.93;76.00
80676;SHT30;70041;46.088;18.268;2023-05-24T02:56:59;17.92;75.52
80676;SHT30;70041;46.088;18.268;2023-05-24T02:59:25;17.96;75.51
80676;SHT30;70041;46.088;18.268;2023-05-24T03:01:51;17.96;75.46
80676;SHT30;70041;46.088;18.268;2023-05-24T03:04:16;18.02;75.02
80676;SHT30;70041;46.088;18.268;2023-05-24T03:06:41;17.99;75.19
80676;SHT30;70041;46.088;18.268;2023-05-24T03:09:07;17.94;75.66
80676;SHT30;70041;46.088;18.268;2023-05-24T03:11:33;17.96;75.24
80676;SHT30;70041;46.088;18.268;2023-05-24T03:13:58;17.90;75.70
80676;SHT30;70041;46.088;18.268;2023-05-24T03:16:24;17.90;75.39
80676;SHT30;70041;46.088;18.268;2023-05-24T03:18:49;18.00;75.19
80676;SHT30;70041;46.088;18.268;2023-05-24T03:21:16;18.03;75.05
80676;SHT30;70041;46.088;18.268;2023-05-24T03:23:41;18.00;74.95
80676;SHT30;70041;46.088;18.268;2023-05-24T03:26:07;17.94;75.20
80676;SHT30;70041;46.088;18.268;2023-05-24T03:28:32;18.02;74.71
80676;SHT30;70041;46.088;18.268;2023-05-24T03:30:58;18.06;74.85
80676;SHT30;70041;46.088;18.268;2023-05-24T03:33:24;18.04;75.30
80676;SHT30;70041;46.088;18.268;2023-05-24T03:35:49;18.03;75.13
80676;SHT30;70041;46.088;18.268;2023-05-24T03:38:15;18.03;75.77
80676;SHT30;70041;46.088;18.268;2023-05-24T03:40:40;18.04;75.62
80676;SHT30;70041;46.088;18.268;2023-05-24T03:43:06;18.06;75.47
80676;SHT30;70041;46.088;18.268;2023-05-24T03:45:31;18.13;75.52
80676;SHT30;70041;46.088;18.268;2023-05-24T03:47:57;18.12;75.16
80676;SHT30;70041;46.088;18.268;2023-05-24T03:50:22;18.06;75.46
80676;SHT30;70041;46.088;18.268;2023-05-24T03:52:48;18.06;75.58
80676;SHT30;70041;46.088;18.268;2023-05-24T03:55:14;18.07;75.69
80676;SHT30;70041;46.088;18.268;2023-05-24T03:57:39;18.07;76.13
80676;SHT30;70041;46.088;18.268;2023-05-24T04:00:07;18.06;75.86
80676;SHT30;70041;46.088;18.268;2023-05-24T04:02:32;18.09;75.79
80676;SHT30;70041;46.088;18.268;2023-05-24T04:04:58;18.09;75.94
80676;SHT30;70041;46.088;18.268;2023-05-24T04:07:23;18.16;75.58
80676;SHT30;70041;46.088;18.268;2023-05-24T04:09:49;18.14;75.50
80676;SHT30;70041;46.088;18.268;2023-05-24T04:12:15;18.17;75.34
80676;SHT30;70041;46.088;18.268;2023-05-24T04:14:41;18.17;75.54
80676;SHT30;70041;46.088;18.268;2023-05-24T04:17:06;18.20;75.45
80676;SHT30;70041;46.088;18.268;2023-05-24T04:19:32;18.20;75.77
80676;SHT30;70041;46.088;18.268;2023-05-24T04:21:58;18.23;75.53
80676;SHT30;70041;46.088;18.268;2023-05-24T04:24:23;18.29;75.41
80676;SHT30;70041;46.088;18.268;2023-05-24T04:26:48;18.23;75.63
80676;SHT30;70041;46.088;18.268;2023-05-24T04:29:14;18.21;76.17
80676;SHT30;70041;46.088;18.268;2023-05-24T04:31:40;18.30;75.88
80676;SHT30;70041;46.088;18.268;2023-05-24T04:34:09;18.31;75.46
80676;SHT30;70041;46.088;18.268;2023-05-24T04:36:37;18.30;75.66
80676;SHT30;70041;46.088;18.268;2023-05-24T04:39:02;18.21;75.74
80676;SHT30;70041;46.088;18.268;2023-05-24T04:41:29;18.13;76.00
80676;SHT30;70041;46.088;18.268;2023-05-24T04:44:00;18.12;76.36
80676;SHT30;70041;46.088;18.268;2023-05-24T04:46:26;18.10;76.66
80676;SHT30;70041;46.088;18.268;2023-05-24T04:48:52;18.10;76.41
80676;SHT30;70041;46.088;18.268;2023-05-24T04:51:19;18.17;76.19
80676;SHT30;70041;46.088;18.268;2023-05-24T04:53:45;18.17;76.45
80676;SHT30;70041;46.088;18.268;2023-05-24T04:56:10;18.23;76.42
80676;SHT30;70041;46.088;18.268;2023-05-24T04:58:39;18.30;76.29
80676;SHT30;70041;46.088;18.268;2023-05-24T05:01:04;18.33;75.75
80676;SHT30;70041;46.088;18.268;2023-05-24T05:03:30;18.36;75.72
80676;SHT30;70041;46.088;18.268;2023-05-24T05:05:55;18.27;76.05
80676;SHT30;70041;46.088;18.268;2023-05-24T05:08:21;18.29;76.15
80676;SHT30;70041;46.088;18.268;2023-05-24T05:10:46;18.31;76.60
80676;SHT30;70041;46.088;18.268;2023-05-24T05:13:12;18.27;77.14
80676;SHT30;70041;46.088;18.268;2023-05-24T05:15:37;18.40;75.87
80676;SHT30;70041;46.088;18.268;2023-05-24T05:18:03;18.48;75.44
80676;SHT30;70041;46.088;18.268;2023-05-24T05:20:28;18.57;75.21
80676;SHT30;70041;46.088;18.268;2023-05-24T05:22:54;18.45;76.20
80676;SHT30;70041;46.088;18.268;2023-05-24T05:25:19;18.58;76.54
80676;SHT30;70041;46.088;18.268;2023-05-24T05:27:45;18.64;74.84
80676;SHT30;70041;46.088;18.268;2023-05-24T05:30:11;18.69;74.72
80676;SHT30;70041;46.088;18.268;2023-05-24T05:32:36;18.65;74.63
80676;SHT30;70041;46.088;18.268;2023-05-24T05:35:02;18.72;74.67
80676;SHT30;70041;46.088;18.268;2023-05-24T05:37:28;18.76;75.39
80676;SHT30;70041;46.088;18.268;2023-05-24T05:39:55;18.88;74.00
80676;SHT30;70041;46.088;18.268;2023-05-24T05:42:20;18.91;73.84
80676;SHT30;70041;46.088;18.268;2023-05-24T05:44:46;18.99;73.93
80676;SHT30;70041;46.088;18.268;2023-05-24T05:47:11;18.92;74.05
80676;SHT30;70041;46.088;18.268;2023-05-24T05:49:36;19.01;73.75
80676;SHT30;70041;46.088;18.268;2023-05-24T05:52:03;19.16;73.72
80676;SHT30;70041;46.088;18.268;2023-05-24T05:54:29;19.13;75.22
80676;SHT30;70041;46.088;18.268;2023-05-24T05:56:55;19.18;74.15
80676;SHT30;70041;46.088;18.268;2023-05-24T05:59:21;19.08;73.90
80676;SHT30;70041;46.088;18.268;2023-05-24T06:01:46;19.08;73.84
80676;SHT30;70041;46.088;18.268;2023-05-24T06:04:16;19.11;73.65
80676;SHT30;70041;46.088;18.268;2023-05-24T06:06:41;19.16;73.72
80676;SHT30;70041;46.088;18.268;2023-05-24T06:09:09;19.08;74.32
80676;SHT30;70041;46.088;18.268;2023-05-24T06:11:35;19.08;73.94
80676;SHT30;70041;46.088;18.268;2023-05-24T06:14:00;19.11;73.72
80676;SHT30;70041;46.088;18.268;2023-05-24T06:16:26;19.09;74.34
80676;SHT30;70041;46.088;18.268;2023-05-24T06:18:53;19.23;74.42
80676;SHT30;70041;46.088;18.268;2023-05-24T06:21:18;19.20;73.98
80676;SHT30;70041;46.088;18.268;2023-05-24T06:23:44;19.33;73.77
80676;SHT30;70041;46.088;18.268;2023-05-24T06:26:09;19.12;73.88
80676;SHT30;70041;46.088;18.268;2023-05-24T06:28:35;19.32;74.53
80676;SHT30;70041;46.088;18.268;2023-05-24T06:31:01;19.45;73.29
80676;SHT30;70041;46.088;18.268;2023-05-24T06:33:27;19.47;73.15
80676;SHT30;70041;46.088;18.268;2023-05-24T06:35:53;19.47;73.92
80676;SHT30;70041;46.088;18.268;2023-05-24T06:38:18;19.46;72.97
80676;SHT30;70041;46.088;18.268;2023-05-24T06:40:43;19.43;74.08
80676;SHT30;70041;46.088;18.268;2023-05-24T06:43:09;19.49;73.70
80676;SHT30;70041;46.088;18.268;2023-05-24T06:45:35;19.30;73.71
80676;SHT30;70041;46.088;18.268;2023-05-24T06:48:01;19.36;73.50
80676;SHT30;70041;46.088;18.268;2023-05-24T06:50:27;19.59;73.50
80676;SHT30;70041;46.088;18.268;2023-05-24T06:52:52;19.71;72.81
80676;SHT30;70041;46.088;18.268;2023-05-24T06:55:18;19.71;73.69
80676;SHT30;70041;46.088;18.268;2023-05-24T06:57:44;19.83;73.00
80676;SHT30;70041;46.088;18.268;2023-05-24T07:00:10;19.86;73.36
80676;SHT30;70041;46.088;18.268;2023-05-24T07:02:39;20.07;70.81
80676;SHT30;70041;46.088;18.268;2023-05-24T07:05:06;20.08;70.68
80676;SHT30;70041;46.088;18.268;2023-05-24T07:07:37;20.08;71.00
80676;SHT30;70041;46.088;18.268;2023-05-24T07:10:03;20.06;70.77
80676;SHT30;70041;46.088;18.268;2023-05-24T07:12:28;20.15;70.51
80676;SHT30;70041;46.088;18.268;2023-05-24T07:14:53;20.10;70.12
80676;SHT30;70041;46.088;18.268;2023-05-24T07:17:20;20.20;69.78
80676;SHT30;70041;46.088;18.268;2023-05-24T07:19:45;20.20;70.01
80676;SHT30;70041;46.088;18.268;2023-05-24T07:22:11;20.17;69.92
80676;SHT30;70041;46.088;18.268;2023-05-24T07:24:36;20.35;69.23
80676;SHT30;70041;46.088;18.268;2023-05-24T07:27:02;20.35;69.08
80676;SHT30;70041;46.088;18.268;2023-05-24T07:29:29;20.51;68.96
80676;SHT30;70041;46.088;18.268;2023-05-24T07:31:54;20.71;68.30
80676;SHT30;70041;46.088;18.268;2023-05-24T07:34:22;20.83;66.81
80676;SHT30;70041;46.088;18.268;2023-05-24T07:36:51;21.03;66.17
80676;SHT30;70041;46.088;18.268;2023-05-24T07:39:17;21.22;65.50
80676;SHT30;70041;46.088;18.268;2023-05-24T07:41:43;21.17;64.64
80676;SHT30;70041;46.088;18.268;2023-05-24T07:44:08;20.92;65.44
80676;SHT30;70041;46.088;18.268;2023-05-24T07:46:34;20.85;65.05
80676;SHT30;70041;46.088;18.268;2023-05-24T07:48:59;20.86;65.33
80676;SHT30;70041;46.088;18.268;2023-05-24T07:51:25;20.92;66.25
80676;SHT30;70041;46.088;18.268;2023-05-24T07:53:50;20.99;66.96
80676;SHT30;70041;46.088;18.268;2023-05-24T07:56:16;21.04;64.94
80676;SHT30;70041;46.088;18.268;2023-05-24T07:58:42;20.99;65.37
80676;SHT30;70041;46.088;18.268;2023-05-24T08:01:11;21.16;65.62
80676;SHT30;70041;46.088;18.268;2023-05-24T08:03:37;21.26;64.84
80676;SHT30;70041;46.088;18.268;2023-05-24T08:06:03;21.40;64.64
80676;SHT30;70041;46.088;18.268;2023-05-24T08:08:29;21.43;64.26
80676;SHT30;70041;46.088;18.268;2023-05-24T08:10:54;21.49;64.44
80676;SHT30;70041;46.088;18.268;2023-05-24T08:13:20;21.53;63.74
80676;SHT30;70041;46.088;18.268;2023-05-24T08:15:45;21.47;64.12
80676;SHT30;70041;46.088;18.268;2023-05-24T08:18:11;21.53;63.45
80676;SHT30;70041;46.088;18.268;2023-05-24T08:20:37;21.50;63.81
80676;SHT30;70041;46.088;18.268;2023-05-24T08:23:02;21.62;63.10
80676;SHT30;70041;46.088;18.268;2023-05-24T08:25:28;21.77;62.18
80676;SHT30;70041;46.088;18.268;2023-05-24T08:27:53;21.92;61.66
80676;SHT30;70041;46.088;18.268;2023-05-24T08:30:21;22.01;61.04
80676;SHT30;70041;46.088;18.268;2023-05-24T08:32:47;22.19;59.51
80676;SHT30;70041;46.088;18.268;2023-05-24T08:35:13;22.39;59.18
80676;SHT30;70041;46.088;18.268;2023-05-24T08:37:38;22.62;58.24
80676;SHT30;70041;46.088;18.268;2023-05-24T08:40:04;22.63;58.25
80676;SHT30;70041;46.088;18.268;2023-05-24T08:42:30;22.62;58.25
80676;SHT30;70041;46.088;18.268;2023-05-24T08:45:07;22.73;57.05
80676;SHT30;70041;46.088;18.268;2023-05-24T08:47:35;22.76;57.59
80676;SHT30;70041;46.088;18.268;2023-05-24T08:50:01;22.74;56.12
80676;SHT30;70041;46.088;18.268;2023-05-24T08:52:28;22.92;55.72
80676;SHT30;70041;46.088;18.268;2023-05-24T08:54:55;23.10;55.29
80676;SHT30;70041;46.088;18.268;2023-05-24T08:57:23;23.33;56.26
80676;SHT30;70041;46.088;18.268;2023-05-24T08:59:50;23.47;55.54
80676;SHT30;70041;46.088;18.268;2023-05-24T09:02:16;23.79;53.77
80676;SHT30;70041;46.088;18.268;2023-05-24T09:04:43;23.66;54.49
80676;SHT30;70041;46.088;18.268;2023-05-24T09:07:12;23.51;54.63
80676;SHT30;70041;46.088;18.268;2023-05-24T09:09:42;23.15;55.41
80676;SHT30;70041;46.088;18.268;2023-05-24T09:12:10;23.33;54.93
80676;SHT30;70041;46.088;18.268;2023-05-24T09:14:42;23.55;54.77
80676;SHT30;70041;46.088;18.268;2023-05-24T09:17:09;23.55;52.09
80676;SHT30;70041;46.088;18.268;2023-05-24T09:19:37;23.45;52.59
80676;SHT30;70041;46.088;18.268;2023-05-24T09:22:03;23.75;53.68
80676;SHT30;70041;46.088;18.268;2023-05-24T09:24:29;23.55;53.86
80676;SHT30;70041;46.088;18.268;2023-05-24T09:27:04;23.71;54.22
80676;SHT30;70041;46.088;18.268;2023-05-24T09:29:34;23.88;54.21
80676;SHT30;70041;46.088;18.268;2023-05-24T09:32:00;23.88;53.19
80676;SHT30;70041;46.088;18.268;2023-05-24T09:34:26;23.90;51.48
80676;SHT30;70041;46.088;18.268;2023-05-24T09:36:51;23.90;52.08
80676;SHT30;70041;46.088;18.268;2023-05-24T09:39:18;23.99;51.70
80676;SHT30;70041;46.088;18.268;2023-05-24T09:41:51;23.86;50.74
80676;SHT30;70041;46.088;18.268;2023-05-24T09:44:23;23.81;51.52
80676;SHT30;70041;46.088;18.268;2023-05-24T09:46:49;23.88;50.68
80676;SHT30;70041;46.088;18.268;2023-05-24T09:49:14;23.71;51.01
80676;SHT30;70041;46.088;18.268;2023-05-24T09:51:39;23.76;51.37
80676;SHT30;70041;46.088;18.268;2023-05-24T09:54:05;24.02;51.68
80676;SHT30;70041;46.088;18.268;2023-05-24T09:56:32;24.10;50.91
80676;SHT30;70041;46.088;18.268;2023-05-24T09:59:19;24.40;49.35
80676;SHT30;70041;46.088;18.268;2023-05-24T10:01:45;24.46;51.61
80676;SHT30;70041;46.088;18.268;2023-05-24T10:04:11;24.41;48.84
80676;SHT30;70041;46.088;18.268;2023-05-24T10:06:40;24.63;49.57
80676;SHT30;70041;46.088;18.268;2023-05-24T10:09:07;24.71;49.97
80676;SHT30;70041;46.088;18.268;2023-05-24T10:11:36;24.47;48.40
80676;SHT30;70041;46.088;18.268;2023-05-24T10:14:05;24.40;48.01
80676;SHT30;70041;46.088;18.268;2023-05-24T10:16:31;24.35;49.94
80676;SHT30;70041;46.088;18.268;2023-05-24T10:18:58;24.23;50.44
80676;SHT30;70041;46.088;18.268;2023-05-24T10:21:23;24.41;48.82
80676;SHT30;70041;46.088;18.268;2023-05-24T10:23:51;24.63;49.31
80676;SHT30;70041;46.088;18.268;2023-05-24T10:26:23;24.74;49.70
80676;SHT30;70041;46.088;18.268;2023-05-24T10:28:54;24.95;48.52
80676;SHT30;70041;46.088;18.268;2023-05-24T10:31:24;24.88;46.00
80676;SHT30;70041;46.088;18.268;2023-05-24T10:33:55;24.73;46.58
80676;SHT30;70041;46.088;18.268;2023-05-24T10:36:22;24.56;47.60
80676;SHT30;70041;46.088;18.268;2023-05-24T10:38:51;24.41;47.22
80676;SHT30;70041;46.088;18.268;2023-05-24T10:41:17;24.53;47.60
80676;SHT30;70041;46.088;18.268;2023-05-24T10:43:45;24.59;48.10
80676;SHT30;70041;46.088;18.268;2023-05-24T10:46:13;24.50;47.57
80676;SHT30;70041;46.088;18.268;2023-05-24T10:48:43;24.43;48.96
80676;SHT30;70041;46.088;18.268;2023-05-24T10:51:47;24.53;48.75
80676;SHT30;70041;46.088;18.268;2023-05-24T10:54:24;24.39;48.46
80676;SHT30;70041;46.088;18.268;2023-05-24T10:56:51;24.12;50.71
80676;SHT30;70041;46.088;18.268;2023-05-24T10:59:22;24.46;48.04
80676;SHT30;70041;46.088;18.268;2023-05-24T11:01:56;24.92;47.71
80676;SHT30;70041;46.088;18.268;2023-05-24T11:04:22;25.18;46.77
80676;SHT30;70041;46.088;18.268;2023-05-24T11:06:51;25.14;46.95
80676;SHT30;70041;46.088;18.268;2023-05-24T11:09:20;25.03;47.48
80676;SHT30;70041;46.088;18.268;2023-05-24T11:11:47;24.98;46.94
80676;SHT30;70041;46.088;18.268;2023-05-24T11:14:17;24.92;46.65
80676;SHT30;70041;46.088;18.268;2023-05-24T11:16:44;25.06;47.76
80676;SHT30;70041;46.088;18.268;2023-05-24T11:19:22;25.10;48.35
80676;SHT30;70041;46.088;18.268;2023-05-24T11:21:50;25.15;45.79
80676;SHT30;70041;46.088;18.268;2023-05-24T11:24:18;24.97;46.51
80676;SHT30;70041;46.088;18.268;2023-05-24T11:26:44;25.29;45.37
80676;SHT30;70041;46.088;18.268;2023-05-24T11:29:12;25.07;45.85
80676;SHT30;70041;46.088;18.268;2023-05-24T11:31:46;25.01;47.21
80676;SHT30;70041;46.088;18.268;2023-05-24T11:34:11;25.18;46.72
80676;SHT30;70041;46.088;18.268;2023-05-24T11:36:37;25.52;47.89
80676;SHT30;70041;46.088;18.268;2023-05-24T11:39:06;25.35;44.56
80676;SHT30;70041;46.088;18.268;2023-05-24T11:41:35;25.18;45.87
80676;SHT30;70041;46.088;18.268;2023-05-24T11:44:01;25.37;47.90
80676;SHT30;70041;46.088;18.268;2023-05-24T11:46:26;25.14;48.31
80676;SHT30;70041;46.088;18.268;2023-05-24T11:48:58;25.12;46.36
80676;SHT30;70041;46.088;18.268;2023-05-24T11:51:29;25.14;46.96
80676;SHT30;70041;46.088;18.268;2023-05-24T11:53:55;25.22;45.27
80676;SHT30;70041;46.088;18.268;2023-05-24T11:56:21;25.50;46.32
80676;SHT30;70041;46.088;18.268;2023-05-24T11:58:48;25.52;44.72
80676;SHT30;70041;46.088;18.268;2023-05-24T12:01:25;25.59;44.51
80676;SHT30;70041;46.088;18.268;2023-05-24T12:03:52;25.90;43.46
80676;SHT30;70041;46.088;18.268;2023-05-24T12:06:18;26.36;42.41
80676;SHT30;70041;46.088;18.268;2023-05-24T12:08:44;27.11;40.78
80676;SHT30;70041;46.088;18.268;2023-05-24T12:11:10;27.96;39.57
80676;SHT30;70041;46.088;18.268;2023-05-24T12:13:38;28.78;38.96
80676;SHT30;70041;46.088;18.268;2023-05-24T12:16:04;29.87;35.24
80676;SHT30;70041;46.088;18.268;2023-05-24T12:18:31;30.76;36.17
80676;SHT30;70041;46.088;18.268;2023-05-24T12:20:56;31.62;33.00
80676;SHT30;70041;46.088;18.268;2023-05-24T12:23:23;31.86;31.95
80676;SHT30;70041;46.088;18.268;2023-05-24T12:25:49;32.08;31.55
80676;SHT30;70041;46.088;18.268;2023-05-24T12:28:18;32.19;31.09
80676;SHT30;70041;46.088;18.268;2023-05-24T12:30:48;32.37;30.60
80676;SHT30;70041;46.088;18.268;2023-05-24T12:33:14;31.21;32.21
80676;SHT30;70041;46.088;18.268;2023-05-24T12:35:40;30.14;35.40
80676;SHT30;70041;46.088;18.268;2023-05-24T12:38:10;29.97;35.02
80676;SHT30;70041;46.088;18.268;2023-05-24T12:40:35;30.43;35.19
80676;SHT30;70041;46.088;18.268;2023-05-24T12:43:03;31.31;33.71
80676;SHT30;70041;46.088;18.268;2023-05-24T12:45:29;32.05;32.69
80676;SHT30;70041;46.088;18.268;2023-05-24T12:47:56;32.42;31.28
80676;SHT30;70041;46.088;18.268;2023-05-24T12:50:23;31.80;31.72
80676;SHT30;70041;46.088;18.268;2023-05-24T12:52:51;31.35;32.28
80676;SHT30;70041;46.088;18.268;2023-05-24T12:55:21;31.44;32.72
80676;SHT30;70041;46.088;18.268;2023-05-24T12:57:47;31.68;32.59
80676;SHT30;70041;46.088;18.268;2023-05-24T13:00:21;31.38;32.36
80676;SHT30;70041;46.088;18.268;2023-05-24T13:02:47;32.52;31.67
80676;SHT30;70041;46.088;18.268;2023-05-24T13:05:13;32.77;31.51
80676;SHT30;70041;46.088;18.268;2023-05-24T13:07:41;33.23;31.27
80676;SHT30;70041;46.088;18.268;2023-05-24T13:10:07;34.10;29.34
80676;SHT30;70041;46.088;18.268;2023-05-24T13:12:32;34.93;28.66
80676;SHT30;70041;46.088;18.268;2023-05-24T13:14:58;35.65;28.06
80676;SHT30;70041;46.088;18.268;2023-05-24T13:17:24;35.59;27.26
80676;SHT30;70041;46.088;18.268;2023-05-24T13:19:50;35.85;27.02
80676;SHT30;70041;46.088;18.268;2023-05-24T13:22:15;35.74;27.38
80676;SHT30;70041;46.088;18.268;2023-05-24T13:24:41;35.75;26.90
80676;SHT30;70041;46.088;18.268;2023-05-24T13:27:06;35.88;27.51
80676;SHT30;70041;46.088;18.268;2023-05-24T13:29:32;36.80;26.09
80676;SHT30;70041;46.088;18.268;2023-05-24T13:31:57;35.52;26.99
80676;SHT30;70041;46.088;18.268;2023-05-24T13:34:23;35.13;27.13
80676;SHT30;70041;46.088;18.268;2023-05-24T13:36:50;35.28;27.11
80676;SHT30;70041;46.088;18.268;2023-05-24T13:39:15;35.28;25.84
80676;SHT30;70041;46.088;18.268;2023-05-24T13:41:41;35.98;26.36
80676;SHT30;70041;46.088;18.268;2023-05-24T13:44:07;35.19;25.61
80676;SHT30;70041;46.088;18.268;2023-05-24T13:46:32;35.19;25.64
80676;SHT30;70041;46.088;18.268;2023-05-24T13:48:58;35.48;25.16
80676;SHT30;70041;46.088;18.268;2023-05-24T13:51:24;34.12;26.89
80676;SHT30;70041;46.088;18.268;2023-05-24T13:53:51;33.82;27.79
80676;SHT30;70041;46.088;18.268;2023-05-24T13:56:16;33.62;28.08
80676;SHT30;70041;46.088;18.268;2023-05-24T13:58:43;34.01;26.45
80676;SHT30;70041;46.088;18.268;2023-05-24T14:01:09;33.41;28.97
80676;SHT30;70041;46.088;18.268;2023-05-24T14:03:34;35.21;26.60
80676;SHT30;70041;46.088;18.268;2023-05-24T14:06:00;34.49;26.64
80676;SHT30;70041;46.088;18.268;2023-05-24T14:08:25;34.47;25.48
80676;SHT30;70041;46.088;18.268;2023-05-24T14:10:51;34.67;25.37
80676;SHT30;70041;46.088;18.268;2023-05-24T14:13:18;35.14;25.09
80676;SHT30;70041;46.088;18.268;2023-05-24T14:15:43;35.10;25.60
80676;SHT30;70041;46.088;18.268;2023-05-24T14:18:11;35.71;24.65
80676;SHT30;70041;46.088;18.268;2023-05-24T14:20:36;35.57;24.96
80676;SHT30;70041;46.088;18.268;2023-05-24T14:23:03;36.36;26.53
80676;SHT30;70041;46.088;18.268;2023-05-24T14:25:29;37.10;26.94
80676;SHT30;70041;46.088;18.268;2023-05-24T14:27:55;37.86;22.72
80676;SHT30;70041;46.088;18.268;2023-05-24T14:30:21;36.53;24.02
80676;SHT30;70041;46.088;18.268;2023-05-24T14:32:46;35.86;24.09
80676;SHT30;70041;46.088;18.268;2023-05-24T14:35:12;36.02;22.99
80676;SHT30;70041;46.088;18.268;2023-05-24T14:37:37;35.41;23.62
80676;SHT30;70041;46.088;18.268;2023-05-24T14:40:04;36.54;24.06
80676;SHT30;70041;46.088;18.268;2023-05-24T14:42:30;36.91;22.36
80676;SHT30;70041;46.088;18.268;2023-05-24T14:44:56;36.84;22.77
80676;SHT30;70041;46.088;18.268;2023-05-24T14:47:21;36.39;22.65
80676;SHT30;70041;46.088;18.268;2023-05-24T14:49:47;37.19;22.16
80676;SHT30;70041;46.088;18.268;2023-05-24T14:52:12;36.03;22.97
80676;SHT30;70041;46.088;18.268;2023-05-24T14:54:38;36.16;23.72
80676;SHT30;70041;46.088;18.268;2023-05-24T14:57:03;36.41;24.06
80676;SHT30;70041;46.088;18.268;2023-05-24T14:59:31;36.71;24.41
80676;SHT30;70041;46.088;18.268;2023-05-24T15:01:56;37.19;23.39
80676;SHT30;70041;46.088;18.268;2023-05-24T15:04:22;36.63;22.81
80676;SHT30;70041;46.088;18.268;2023-05-24T15:06:47;36.41;22.45
80676;SHT30;70041;46.088;18.268;2023-05-24T15:09:13;36.06;23.54
80676;SHT30;70041;46.088;18.268;2023-05-24T15:11:38;35.14;24.18
80676;SHT30;70041;46.088;18.268;2023-05-24T15:14:03;35.54;25.91
80676;SHT30;70041;46.088;18.268;2023-05-24T15:16:29;35.35;24.48
80676;SHT30;70041;46.088;18.268;2023-05-24T15:18:55;35.54;23.54
80676;SHT30;70041;46.088;18.268;2023-05-24T15:21:20;35.92;24.11
80676;SHT30;70041;46.088;18.268;2023-05-24T15:23:46;35.74;23.70